sensor_id;sensor_type;location;lat;lon;timestamp;temperature;humidity
40085;DHT22;25786;51.504;7.344;2023-03-01T00:00:54;0.40;72.20
40085;DHT22;25786;51.504;7.344;2023-03-01T00:03:25;0.40;71.80
40085;DHT22;25786;51.504;7.344;2023-03-01T00:05:51;0.40;72.10
40085;DHT22;25786;51.504;7.344;2023-03-01T00:08:16;0.40;71.80
40085;DHT22;25786;51.504;7.344;2023-03-01T00:10:42;0.40;71.70
40085;DHT22;25786;51.504;7.344;2023-03-01T00:13:07;0.40;72.10
40085;DHT22;25786;51.504;7.344;2023-03-01T00:15:33;0.30;72.30
40085;DHT22;25786;51.504;7.344;2023-03-01T00:18:00;0.30;72.80
40085;DHT22;25786;51.504;7.344;2023-03-01T00:20:25;0.20;73.10
40085;DHT22;25786;51.504;7.344;2023-03-01T00:22:51;0.30;73.20
40085;DHT22;25786;51.504;7.344;2023-03-01T00:25:16;0.40;73.00
40085;DHT22;25786;51.504;7.344;2023-03-01T00:27:41;0.30;72.90
40085;DHT22;25786;51.504;7.344;2023-03-01T00:30:07;0.20;72.80
40085;DHT22;25786;51.504;7.344;2023-03-01T00:32:33;0.20;72.70
40085;DHT22;25786;51.504;7.344;2023-03-01T00:34:58;0.20;73.40
40085;DHT22;25786;51.504;7.344;2023-03-01T00:37:24;0.20;73.00
40085;DHT22;25786;51.504;7.344;2023-03-01T00:39:49;0.30;72.50
40085;DHT22;25786;51.504;7.344;2023-03-01T00:42:15;0.30;72.20
40085;DHT22;25786;51.504;7.344;2023-03-01T00:44:41;0.30;72.10
40085;DHT22;25786;51.504;7.344;2023-03-01T00:47:06;0.30;73.00
40085;DHT22;25786;51.504;7.344;2023-03-01T00:49:32;0.30;72.90
40085;DHT22;25786;51.504;7.344;2023-03-01T00:51:57;0.30;72.70
40085;DHT22;25786;51.504;7.344;2023-03-01T00:54:23;0.20;73.00
40085;DHT22;25786;51.504;7.344;2023-03-01T00:56:48;0.20;73.40
40085;DHT22;25786;51.504;7.344;2023-03-01T00:59:14;0.10;73.30
40085;DHT22;25786;51.504;7.344;2023-03-01T01:01:39;0.10;73.20
40085;DHT22;25786;51.504;7.344;2023-03-01T01:04:06;0.10;73.60
40085;DHT22;25786;51.504;7.344;2023-03-01T01:06:36;0.10;73.40
40085;DHT22;25786;51.504;7.344;2023-03-01T01:09:02;0.00;73.70
40085;DHT22;25786;51.504;7.344;2023-03-01T01:11:29;0.00;74.00
40085;DHT22;25786;51.504;7.344;2023-03-01T01:13:55;0.00;73.80
40085;DHT22;25786;51.504;7.344;2023-03-01T01:16:22;0.00;73.80
40085;DHT22;25786;51.504;7.344;2023-03-01T01:18:47;0.00;74.40
40085;DHT22;25786;51.504;7.344;2023-03-01T01:21:14;0.00;74.20
40085;DHT22;25786;51.504;7.344;2023-03-01T01:23:43;0.00;74.10
40085;DHT22;25786;51.504;7.344;2023-03-01T01:26:12;0.00;73.60
40085;DHT22;25786;51.504;7.344;2023-03-01T01:28:38;-3276.70;74.00
40085;DHT22;25786;51.504;7.344;2023-03-01T01:31:04;-3276.60;74.30
40085;DHT22;25786;51.504;7.344;2023-03-01T01:33:29;-3276.70;74.20
40085;DHT22;25786;51.504;7.344;2023-03-01T01:35:55;-3276.60;74.80
40085;DHT22;25786;51.504;7.344;2023-03-01T01:38:20;-3276.60;74.20
40085;DHT22;25786;51.504;7.344;2023-03-01T01:40:46;-3276.70;73.90
40085;DHT22;25786;51.504;7.344;2023-03-01T01:43:20;-3276.70;74.20
40085;DHT22;25786;51.504;7.344;2023-03-01T01:45:47;-3276.70;73.60
40085;DHT22;25786;51.504;7.344;2023-03-01T01:48:14;-3276.70;73.60
40085;DHT22;25786;51.504;7.344;2023-03-01T01:50:41;-3276.70;73.90
40085;DHT22;25786;51.504;7.344;2023-03-01T01:53:14;-3276.70;73.90
40085;DHT22;25786;51.504;7.344;2023-03-01T01:55:51;-3276.70;73.90
40085;DHT22;25786;51.504;7.344;2023-03-01T01:58:19;-3276.70;73.80
40085;DHT22;25786;51.504;7.344;2023-03-01T02:00:45;-3276.70;73.80
40085;DHT22;25786;51.504;7.344;2023-03-01T02:03:14;-3276.70;73.80
40085;DHT22;25786;51.504;7.344;2023-03-01T02:08:18;-3276.60;74.10
40085;DHT22;25786;51.504;7.344;2023-03-01T02:10:45;-3276.60;73.80
40085;DHT22;25786;51.504;7.344;2023-03-01T02:13:10;-3276.50;74.50
40085;DHT22;25786;51.504;7.344;2023-03-01T02:15:37;-3276.50;74.80
40085;DHT22;25786;51.504;7.344;2023-03-01T02:18:03;-3276.50;74.70
40085;DHT22;25786;51.504;7.344;2023-03-01T02:23:24;-3276.50;74.70
40085;DHT22;25786;51.504;7.344;2023-03-01T02:30:42;-3276.20;74.90
40085;DHT22;25786;51.504;7.344;2023-03-01T02:33:29;-3276.10;75.10
40085;DHT22;25786;51.504;7.344;2023-03-01T02:35:59;-3276.20;75.30
40085;DHT22;25786;51.504;7.344;2023-03-01T02:38:25;-3276.20;75.20
40085;DHT22;25786;51.504;7.344;2023-03-01T02:40:53;-3276.20;75.30
40085;DHT22;25786;51.504;7.344;2023-03-01T02:43:19;-3276.20;75.00
40085;DHT22;25786;51.504;7.344;2023-03-01T02:45:50;-3276.10;74.90
40085;DHT22;25786;51.504;7.344;2023-03-01T02:48:16;-3276.10;75.40
40085;DHT22;25786;51.504;7.344;2023-03-01T02:50:54;-3276.10;76.00
40085;DHT22;25786;51.504;7.344;2023-03-01T02:53:27;-3276.00;76.10
40085;DHT22;25786;51.504;7.344;2023-03-01T02:55:53;-3276.20;75.30
40085;DHT22;25786;51.504;7.344;2023-03-01T02:58:19;-3276.20;75.30
40085;DHT22;25786;51.504;7.344;2023-03-01T03:00:44;-3276.10;75.30
40085;DHT22;25786;51.504;7.344;2023-03-01T03:03:15;-3276.20;75.30
40085;DHT22;25786;51.504;7.344;2023-03-01T03:05:41;-3276.30;74.70
40085;DHT22;25786;51.504;7.344;2023-03-01T03:08:07;-3276.20;75.10
40085;DHT22;25786;51.504;7.344;2023-03-01T03:10:34;-3276.20;75.10
40085;DHT22;25786;51.504;7.344;2023-03-01T03:13:02;-3276.20;75.50
40085;DHT22;25786;51.504;7.344;2023-03-01T03:15:28;-3276.20;75.60
40085;DHT22;25786;51.504;7.344;2023-03-01T03:17:54;-3276.20;75.10
40085;DHT22;25786;51.504;7.344;2023-03-01T03:20:20;-3276.00;75.10
40085;DHT22;25786;51.504;7.344;2023-03-01T03:22:48;-3276.20;75.10
40085;DHT22;25786;51.504;7.344;2023-03-01T03:25:13;-3276.20;74.90
40085;DHT22;25786;51.504;7.344;2023-03-01T03:27:39;-3276.20;75.20
40085;DHT22;25786;51.504;7.344;2023-03-01T03:30:06;-3276.10;74.60
40085;DHT22;25786;51.504;7.344;2023-03-01T03:32:37;-3276.20;74.30
40085;DHT22;25786;51.504;7.344;2023-03-01T03:35:06;-3276.20;74.20
40085;DHT22;25786;51.504;7.344;2023-03-01T03:37:38;-3276.10;74.60
40085;DHT22;25786;51.504;7.344;2023-03-01T03:40:23;-3276.20;74.40
40085;DHT22;25786;51.504;7.344;2023-03-01T03:42:49;-3276.10;74.80
40085;DHT22;25786;51.504;7.344;2023-03-01T03:45:15;-3276.10;75.00
40085;DHT22;25786;51.504;7.344;2023-03-01T03:47:41;-3276.10;75.40
40085;DHT22;25786;51.504;7.344;2023-03-01T03:50:06;-3276.00;75.30
40085;DHT22;25786;51.504;7.344;2023-03-01T03:52:32;-3276.00;75.40
40085;DHT22;25786;51.504;7.344;2023-03-01T03:54:57;-3276.00;75.30
40085;DHT22;25786;51.504;7.344;2023-03-01T03:57:23;-3275.80;75.30
40085;DHT22;25786;51.504;7.344;2023-03-01T03:59:48;-3275.80;75.40
40085;DHT22;25786;51.504;7.344;2023-03-01T04:02:14;-3275.90;76.20
40085;DHT22;25786;51.504;7.344;2023-03-01T04:04:47;-3275.90;76.40
40085;DHT22;25786;51.504;7.344;2023-03-01T04:07:15;-3275.90;76.50
40085;DHT22;25786;51.504;7.344;2023-03-01T04:09:41;-3275.90;76.40
40085;DHT22;25786;51.504;7.344;2023-03-01T04:12:08;-3276.00;76.60
40085;DHT22;25786;51.504;7.344;2023-03-01T04:14:33;-3276.00;76.20
40085;DHT22;25786;51.504;7.344;2023-03-01T04:16:59;-3276.00;76.10
40085;DHT22;25786;51.504;7.344;2023-03-01T04:19:24;-3275.90;75.80
40085;DHT22;25786;51.504;7.344;2023-03-01T04:21:50;-3275.90;76.30
40085;DHT22;25786;51.504;7.344;2023-03-01T04:24:15;-3275.90;76.50
40085;DHT22;25786;51.504;7.344;2023-03-01T04:26:41;-3275.80;76.50
40085;DHT22;25786;51.504;7.344;2023-03-01T04:29:07;-3275.90;76.20
40085;DHT22;25786;51.504;7.344;2023-03-01T04:31:32;-3275.80;75.90
40085;DHT22;25786;51.504;7.344;2023-03-01T04:33:59;-3275.70;76.50
40085;DHT22;25786;51.504;7.344;2023-03-01T04:36:26;-3275.70;76.60
40085;DHT22;25786;51.504;7.344;2023-03-01T04:38:52;-3275.70;76.80
40085;DHT22;25786;51.504;7.344;2023-03-01T04:41:19;-3275.50;76.80
40085;DHT22;25786;51.504;7.344;2023-03-01T04:43:45;-3275.60;77.20
40085;DHT22;25786;51.504;7.344;2023-03-01T04:46:11;-3275.50;76.90
40085;DHT22;25786;51.504;7.344;2023-03-01T04:48:37;-3275.50;76.90
40085;DHT22;25786;51.504;7.344;2023-03-01T04:51:03;-3275.50;77.30
40085;DHT22;25786;51.504;7.344;2023-03-01T04:53:29;-3275.50;77.40
40085;DHT22;25786;51.504;7.344;2023-03-01T04:55:55;-3275.40;77.30
40085;DHT22;25786;51.504;7.344;2023-03-01T04:58:24;-3275.40;77.40
40085;DHT22;25786;51.504;7.344;2023-03-01T05:00:50;-3275.40;77.60
40085;DHT22;25786;51.504;7.344;2023-03-01T05:03:16;-3275.40;77.40
40085;DHT22;25786;51.504;7.344;2023-03-01T05:05:45;-3275.30;77.40
40085;DHT22;25786;51.504;7.344;2023-03-01T05:08:11;-3275.30;77.20
40085;DHT22;25786;51.504;7.344;2023-03-01T05:10:43;-3275.20;77.40
40085;DHT22;25786;51.504;7.344;2023-03-01T05:13:09;-3275.20;77.40
40085;DHT22;25786;51.504;7.344;2023-03-01T05:15:34;-3275.10;77.60
40085;DHT22;25786;51.504;7.344;2023-03-01T05:18:01;-3275.20;78.30
40085;DHT22;25786;51.504;7.344;2023-03-01T05:20:30;-3275.30;78.00
40085;DHT22;25786;51.504;7.344;2023-03-01T05:22:57;-3275.30;78.00
40085;DHT22;25786;51.504;7.344;2023-03-01T05:25:24;-3275.40;77.80
40085;DHT22;25786;51.504;7.344;2023-03-01T05:27:49;-3275.30;77.80
40085;DHT22;25786;51.504;7.344;2023-03-01T05:30:15;-3275.30;78.10
40085;DHT22;25786;51.504;7.344;2023-03-01T05:32:45;-3275.30;78.00
40085;DHT22;25786;51.504;7.344;2023-03-01T05:35:15;-3275.30;78.10
40085;DHT22;25786;51.504;7.344;2023-03-01T05:37:45;-3275.30;78.00
40085;DHT22;25786;51.504;7.344;2023-03-01T05:40:12;-3275.00;78.20
40085;DHT22;25786;51.504;7.344;2023-03-01T05:42:58;-3275.00;78.30
40085;DHT22;25786;51.504;7.344;2023-03-01T05:45:24;-3275.00;78.40
40085;DHT22;25786;51.504;7.344;2023-03-01T05:47:50;-3275.00;78.60
40085;DHT22;25786;51.504;7.344;2023-03-01T05:50:17;-3275.10;78.60
40085;DHT22;25786;51.504;7.344;2023-03-01T05:52:47;-3275.10;78.20
40085;DHT22;25786;51.504;7.344;2023-03-01T05:55:14;-3275.10;78.30
40085;DHT22;25786;51.504;7.344;2023-03-01T05:57:40;-3275.10;78.30
40085;DHT22;25786;51.504;7.344;2023-03-01T06:00:09;-3275.10;78.20
40085;DHT22;25786;51.504;7.344;2023-03-01T06:02:36;-3275.10;78.60
40085;DHT22;25786;51.504;7.344;2023-03-01T06:05:01;-3275.20;78.80
40085;DHT22;25786;51.504;7.344;2023-03-01T06:07:27;-3275.20;78.40
40085;DHT22;25786;51.504;7.344;2023-03-01T06:09:56;-3275.20;78.40
40085;DHT22;25786;51.504;7.344;2023-03-01T06:12:21;-3275.10;78.00
40085;DHT22;25786;51.504;7.344;2023-03-01T06:14:47;-3275.00;78.10
40085;DHT22;25786;51.504;7.344;2023-03-01T06:17:13;-3275.00;78.20
40085;DHT22;25786;51.504;7.344;2023-03-01T06:19:38;-3274.90;78.10
40085;DHT22;25786;51.504;7.344;2023-03-01T06:22:03;-3274.90;78.10
40085;DHT22;25786;51.504;7.344;2023-03-01T06:24:29;-3274.80;78.40
40085;DHT22;25786;51.504;7.344;2023-03-01T06:26:55;-3274.70;78.70
40085;DHT22;25786;51.504;7.344;2023-03-01T06:29:21;-3274.60;79.00
40085;DHT22;25786;51.504;7.344;2023-03-01T06:31:48;-3274.60;79.40
40085;DHT22;25786;51.504;7.344;2023-03-01T06:34:13;-3274.60;79.50
40085;DHT22;25786;51.504;7.344;2023-03-01T06:36:39;-3274.70;79.90
40085;DHT22;25786;51.504;7.344;2023-03-01T06:39:05;-3274.70;79.60
40085;DHT22;25786;51.504;7.344;2023-03-01T06:41:33;-3274.70;79.70
40085;DHT22;25786;51.504;7.344;2023-03-01T06:43:59;-3274.70;79.70
40085;DHT22;25786;51.504;7.344;2023-03-01T06:46:25;-3274.70;79.80
40085;DHT22;25786;51.504;7.344;2023-03-01T06:48:51;-3274.70;79.90
40085;DHT22;25786;51.504;7.344;2023-03-01T06:51:16;-3274.70;79.90
40085;DHT22;25786;51.504;7.344;2023-03-01T06:53:42;-3274.70;80.00
40085;DHT22;25786;51.504;7.344;2023-03-01T06:56:07;-3274.60;80.00
40085;DHT22;25786;51.504;7.344;2023-03-01T06:58:33;-3274.70;80.20
40085;DHT22;25786;51.504;7.344;2023-03-01T07:00:58;-3274.70;80.20
40085;DHT22;25786;51.504;7.344;2023-03-01T07:03:24;-3274.80;80.30
40085;DHT22;25786;51.504;7.344;2023-03-01T07:05:55;-3274.80;80.60
40085;DHT22;25786;51.504;7.344;2023-03-01T07:08:21;-3274.90;80.40
40085;DHT22;25786;51.504;7.344;2023-03-01T07:10:46;-3274.90;80.00
40085;DHT22;25786;51.504;7.344;2023-03-01T07:13:12;-3275.00;79.90
40085;DHT22;25786;51.504;7.344;2023-03-01T07:15:40;-3275.00;79.80
40085;DHT22;25786;51.504;7.344;2023-03-01T07:18:06;-3275.00;79.80
40085;DHT22;25786;51.504;7.344;2023-03-01T07:20:32;-3275.00;79.90
40085;DHT22;25786;51.504;7.344;2023-03-01T07:22:57;-3275.00;80.10
40085;DHT22;25786;51.504;7.344;2023-03-01T07:25:26;-3275.00;80.10
40085;DHT22;25786;51.504;7.344;2023-03-01T07:27:55;-3275.10;80.30
40085;DHT22;25786;51.504;7.344;2023-03-01T07:30:21;-3275.20;80.20
40085;DHT22;25786;51.504;7.344;2023-03-01T07:32:46;-3275.30;79.70
40085;DHT22;25786;51.504;7.344;2023-03-01T07:35:12;-3275.30;79.70
40085;DHT22;25786;51.504;7.344;2023-03-01T07:37:37;-3275.50;79.30
40085;DHT22;25786;51.504;7.344;2023-03-01T07:40:03;-3275.50;79.20
40085;DHT22;25786;51.504;7.344;2023-03-01T07:42:28;-3275.40;79.30
40085;DHT22;25786;51.504;7.344;2023-03-01T07:44:56;-3275.50;79.50
40085;DHT22;25786;51.504;7.344;2023-03-01T07:47:22;-3275.50;79.80
40085;DHT22;25786;51.504;7.344;2023-03-01T07:49:47;-3275.70;79.60
40085;DHT22;25786;51.504;7.344;2023-03-01T07:52:13;-3275.90;79.00
40085;DHT22;25786;51.504;7.344;2023-03-01T07:54:38;-3275.90;77.90
40085;DHT22;25786;51.504;7.344;2023-03-01T07:57:04;-3275.90;78.20
40085;DHT22;25786;51.504;7.344;2023-03-01T07:59:29;-3276.00;78.10
40085;DHT22;25786;51.504;7.344;2023-03-01T08:01:56;-3276.10;77.50
40085;DHT22;25786;51.504;7.344;2023-03-01T08:04:21;-3276.10;77.50
40085;DHT22;25786;51.504;7.344;2023-03-01T08:06:52;-3276.10;77.60
40085;DHT22;25786;51.504;7.344;2023-03-01T08:09:17;-3276.30;78.00
40085;DHT22;25786;51.504;7.344;2023-03-01T08:11:46;-3276.20;76.70
40085;DHT22;25786;51.504;7.344;2023-03-01T08:14:17;-3276.20;77.10
40085;DHT22;25786;51.504;7.344;2023-03-01T08:16:43;-3276.20;77.20
40085;DHT22;25786;51.504;7.344;2023-03-01T08:19:09;-3276.20;76.90
40085;DHT22;25786;51.504;7.344;2023-03-01T08:21:35;-3276.20;77.30
40085;DHT22;25786;51.504;7.344;2023-03-01T08:24:04;-3276.20;77.80
40085;DHT22;25786;51.504;7.344;2023-03-01T08:26:31;-3276.50;76.60
40085;DHT22;25786;51.504;7.344;2023-03-01T08:28:56;-3276.50;76.60
40085;DHT22;25786;51.504;7.344;2023-03-01T08:31:26;-3276.60;76.60
40085;DHT22;25786;51.504;7.344;2023-03-01T08:33:54;-3276.70;76.10
40085;DHT22;25786;51.504;7.344;2023-03-01T08:36:23;-3276.70;76.40
40085;DHT22;25786;51.504;7.344;2023-03-01T08:38:49;0.00;76.70
40085;DHT22;25786;51.504;7.344;2023-03-01T08:41:14;0.00;75.00
40085;DHT22;25786;51.504;7.344;2023-03-01T08:43:40;0.10;75.20
40085;DHT22;25786;51.504;7.344;2023-03-01T08:46:05;0.10;74.90
40085;DHT22;25786;51.504;7.344;2023-03-01T08:48:31;0.10;74.40
40085;DHT22;25786;51.504;7.344;2023-03-01T08:50:56;0.30;74.80
40085;DHT22;25786;51.504;7.344;2023-03-01T08:53:22;0.40;75.30
40085;DHT22;25786;51.504;7.344;2023-03-01T08:55:47;0.40;74.40
40085;DHT22;25786;51.504;7.344;2023-03-01T08:58:13;0.50;74.60
40085;DHT22;25786;51.504;7.344;2023-03-01T09:00:38;0.60;73.20
40085;DHT22;25786;51.504;7.344;2023-03-01T09:03:05;0.80;74.00
40085;DHT22;25786;51.504;7.344;2023-03-01T09:05:31;0.90;72.90
40085;DHT22;25786;51.504;7.344;2023-03-01T09:07:57;1.00;71.60
40085;DHT22;25786;51.504;7.344;2023-03-01T09:10:22;1.10;71.30
40085;DHT22;25786;51.504;7.344;2023-03-01T09:12:54;1.10;72.30
40085;DHT22;25786;51.504;7.344;2023-03-01T09:15:19;1.20;70.20
40085;DHT22;25786;51.504;7.344;2023-03-01T09:17:45;1.30;70.60
40085;DHT22;25786;51.504;7.344;2023-03-01T09:20:10;1.30;68.90
40085;DHT22;25786;51.504;7.344;2023-03-01T09:22:39;1.40;69.50
40085;DHT22;25786;51.504;7.344;2023-03-01T09:25:04;1.50;69.00
40085;DHT22;25786;51.504;7.344;2023-03-01T09:27:30;1.50;70.50
40085;DHT22;25786;51.504;7.344;2023-03-01T09:29:56;1.60;69.20
40085;DHT22;25786;51.504;7.344;2023-03-01T09:32:29;1.70;68.20
40085;DHT22;25786;51.504;7.344;2023-03-01T09:34:55;1.70;67.60
40085;DHT22;25786;51.504;7.344;2023-03-01T09:37:28;1.80;68.80
40085;DHT22;25786;51.504;7.344;2023-03-01T09:39:54;2.00;68.10
40085;DHT22;25786;51.504;7.344;2023-03-01T09:42:20;2.10;65.10
40085;DHT22;25786;51.504;7.344;2023-03-01T09:47:18;2.20;66.10
40085;DHT22;25786;51.504;7.344;2023-03-01T09:49:58;2.20;65.30
40085;DHT22;25786;51.504;7.344;2023-03-01T09:52:34;2.20;65.00
40085;DHT22;25786;51.504;7.344;2023-03-01T09:55:04;2.30;65.10
40085;DHT22;25786;51.504;7.344;2023-03-01T09:57:37;2.50;63.70
40085;DHT22;25786;51.504;7.344;2023-03-01T10:00:14;2.50;62.60
40085;DHT22;25786;51.504;7.344;2023-03-01T10:02:42;2.50;62.90
40085;DHT22;25786;51.504;7.344;2023-03-01T10:05:14;2.50;63.70
40085;DHT22;25786;51.504;7.344;2023-03-01T10:07:47;2.60;62.40
40085;DHT22;25786;51.504;7.344;2023-03-01T10:10:21;2.70;62.90
40085;DHT22;25786;51.504;7.344;2023-03-01T10:12:55;2.60;62.90
40085;DHT22;25786;51.504;7.344;2023-03-01T10:18:25;2.90;64.00
40085;DHT22;25786;51.504;7.344;2023-03-01T10:20:59;3.00;63.40
40085;DHT22;25786;51.504;7.344;2023-03-01T10:23:26;3.00;62.50
40085;DHT22;25786;51.504;7.344;2023-03-01T10:30:47;3.10;62.40
40085;DHT22;25786;51.504;7.344;2023-03-01T10:35:41;3.20;62.00
40085;DHT22;25786;51.504;7.344;2023-03-01T10:38:11;3.30;61.40
40085;DHT22;25786;51.504;7.344;2023-03-01T10:40:49;3.20;60.50
40085;DHT22;25786;51.504;7.344;2023-03-01T10:43:15;3.20;61.60
40085;DHT22;25786;51.504;7.344;2023-03-01T10:45:40;3.10;60.70
40085;DHT22;25786;51.504;7.344;2023-03-01T10:48:19;3.10;61.10
40085;DHT22;25786;51.504;7.344;2023-03-01T10:53:27;3.30;59.90
40085;DHT22;25786;51.504;7.344;2023-03-01T10:58:26;3.40;60.80
40085;DHT22;25786;51.504;7.344;2023-03-01T11:00:58;3.50;60.10
40085;DHT22;25786;51.504;7.344;2023-03-01T11:03:26;3.50;60.10
40085;DHT22;25786;51.504;7.344;2023-03-01T11:16:22;3.80;60.30
40085;DHT22;25786;51.504;7.344;2023-03-01T11:18:55;3.80;59.80
40085;DHT22;25786;51.504;7.344;2023-03-01T11:21:21;3.90;59.80
40085;DHT22;25786;51.504;7.344;2023-03-01T11:23:47;3.80;58.30
40085;DHT22;25786;51.504;7.344;2023-03-01T11:26:12;3.80;59.80
40085;DHT22;25786;51.504;7.344;2023-03-01T11:28:39;3.90;60.20
40085;DHT22;25786;51.504;7.344;2023-03-01T11:31:09;3.90;59.90
40085;DHT22;25786;51.504;7.344;2023-03-01T11:33:43;4.00;61.60
40085;DHT22;25786;51.504;7.344;2023-03-01T11:36:30;4.00;58.80
40085;DHT22;25786;51.504;7.344;2023-03-01T11:38:56;4.10;59.70
40085;DHT22;25786;51.504;7.344;2023-03-01T11:41:26;4.10;59.80
40085;DHT22;25786;51.504;7.344;2023-03-01T11:44:00;4.10;58.90
40085;DHT22;25786;51.504;7.344;2023-03-01T11:54:55;4.30;57.50
40085;DHT22;25786;51.504;7.344;2023-03-01T12:05:17;4.40;59.00
40085;DHT22;25786;51.504;7.344;2023-03-01T12:10:29;4.60;58.80
40085;DHT22;25786;51.504;7.344;2023-03-01T12:20:50;4.70;58.00
40085;DHT22;25786;51.504;7.344;2023-03-01T12:26:02;4.80;58.10
40085;DHT22;25786;51.504;7.344;2023-03-01T12:31:16;5.00;57.30
40085;DHT22;25786;51.504;7.344;2023-03-01T12:39:38;4.90;55.20
40085;DHT22;25786;51.504;7.344;2023-03-01T12:42:13;4.80;56.50
40085;DHT22;25786;51.504;7.344;2023-03-01T12:49:47;5.10;57.70
40085;DHT22;25786;51.504;7.344;2023-03-01T12:52:19;5.20;56.20
40085;DHT22;25786;51.504;7.344;2023-03-01T12:54:46;5.20;55.80
40085;DHT22;25786;51.504;7.344;2023-03-01T12:57:25;5.20;55.90
40085;DHT22;25786;51.504;7.344;2023-03-01T13:00:05;5.30;54.70
40085;DHT22;25786;51.504;7.344;2023-03-01T13:02:52;5.20;54.80
40085;DHT22;25786;51.504;7.344;2023-03-01T13:05:24;5.20;53.60
40085;DHT22;25786;51.504;7.344;2023-03-01T13:17:49;5.40;51.60
40085;DHT22;25786;51.504;7.344;2023-03-01T13:20:16;5.40;51.80
40085;DHT22;25786;51.504;7.344;2023-03-01T13:22:42;5.40;51.40
40085;DHT22;25786;51.504;7.344;2023-03-01T13:25:18;5.60;51.90
40085;DHT22;25786;51.504;7.344;2023-03-01T13:27:44;5.60;53.20
40085;DHT22;25786;51.504;7.344;2023-03-01T13:33:05;5.70;51.20
40085;DHT22;25786;51.504;7.344;2023-03-01T13:35:44;5.70;51.60
40085;DHT22;25786;51.504;7.344;2023-03-01T13:45:55;5.60;52.00
40085;DHT22;25786;51.504;7.344;2023-03-01T13:48:25;5.70;51.50
40085;DHT22;25786;51.504;7.344;2023-03-01T13:50:53;5.80;52.20
40085;DHT22;25786;51.504;7.344;2023-03-01T13:53:21;5.80;51.60
40085;DHT22;25786;51.504;7.344;2023-03-01T13:55:48;5.80;50.30
40085;DHT22;25786;51.504;7.344;2023-03-01T13:58:16;5.80;51.40
40085;DHT22;25786;51.504;7.344;2023-03-01T14:00:43;5.70;51.20
40085;DHT22;25786;51.504;7.344;2023-03-01T14:03:10;5.90;51.00
40085;DHT22;25786;51.504;7.344;2023-03-01T14:05:36;5.80;52.00
40085;DHT22;25786;51.504;7.344;2023-03-01T14:08:03;5.90;51.60
40085;DHT22;25786;51.504;7.344;2023-03-01T14:10:44;5.80;51.20
40085;DHT22;25786;51.504;7.344;2023-03-01T14:16:47;5.90;53.30
40085;DHT22;25786;51.504;7.344;2023-03-01T14:21:12;6.00;50.60
40085;DHT22;25786;51.504;7.344;2023-03-01T14:23:39;6.00;51.70
40085;DHT22;25786;51.504;7.344;2023-03-01T14:26:07;6.10;49.70
40085;DHT22;25786;51.504;7.344;2023-03-01T14:28:33;6.10;50.70
40085;DHT22;25786;51.504;7.344;2023-03-01T14:31:03;6.00;49.90
40085;DHT22;25786;51.504;7.344;2023-03-01T14:33:35;6.00;50.70
40085;DHT22;25786;51.504;7.344;2023-03-01T14:38:34;6.10;51.30
40085;DHT22;25786;51.504;7.344;2023-03-01T14:41:10;6.30;51.80
40085;DHT22;25786;51.504;7.344;2023-03-01T14:43:37;6.20;51.50
40085;DHT22;25786;51.504;7.344;2023-03-01T14:46:03;6.10;51.40
40085;DHT22;25786;51.504;7.344;2023-03-01T14:48:29;6.00;52.10
40085;DHT22;25786;51.504;7.344;2023-03-01T14:50:55;6.10;52.30
40085;DHT22;25786;51.504;7.344;2023-03-01T14:53:24;6.10;50.30
40085;DHT22;25786;51.504;7.344;2023-03-01T14:55:55;6.10;49.60
40085;DHT22;25786;51.504;7.344;2023-03-01T14:58:22;6.10;49.80
40085;DHT22;25786;51.504;7.344;2023-03-01T15:00:50;6.10;49.60
40085;DHT22;25786;51.504;7.344;2023-03-01T15:03:26;6.00;49.60
40085;DHT22;25786;51.504;7.344;2023-03-01T15:05:52;6.00;49.30
40085;DHT22;25786;51.504;7.344;2023-03-01T15:08:20;5.90;50.90
40085;DHT22;25786;51.504;7.344;2023-03-01T15:10:56;5.90;50.50
40085;DHT22;25786;51.504;7.344;2023-03-01T15:13:25;5.90;49.90
40085;DHT22;25786;51.504;7.344;2023-03-01T15:15:51;5.90;50.00
40085;DHT22;25786;51.504;7.344;2023-03-01T15:18:21;5.90;50.20
40085;DHT22;25786;51.504;7.344;2023-03-01T15:20:49;5.80;51.30
40085;DHT22;25786;51.504;7.344;2023-03-01T15:23:19;5.90;51.40
40085;DHT22;25786;51.504;7.344;2023-03-01T15:25:46;5.80;51.20
40085;DHT22;25786;51.504;7.344;2023-03-01T15:28:15;5.90;50.70
40085;DHT22;25786;51.504;7.344;2023-03-01T15:30:43;5.80;51.20
40085;DHT22;25786;51.504;7.344;2023-03-01T15:35:54;5.90;51.50
40085;DHT22;25786;51.504;7.344;2023-03-01T15:40:59;5.80;51.10
40085;DHT22;25786;51.504;7.344;2023-03-01T15:46:11;5.90;51.20
40085;DHT22;25786;51.504;7.344;2023-03-01T15:48:38;5.70;50.20
40085;DHT22;25786;51.504;7.344;2023-03-01T15:51:04;5.70;51.30
40085;DHT22;25786;51.504;7.344;2023-03-01T15:53:29;5.70;50.20
40085;DHT22;25786;51.504;7.344;2023-03-01T15:55:55;5.70;51.30
40085;DHT22;25786;51.504;7.344;2023-03-01T15:58:24;5.60;50.80
40085;DHT22;25786;51.504;7.344;2023-03-01T16:00:50;5.60;51.80
40085;DHT22;25786;51.504;7.344;2023-03-01T16:03:21;5.60;50.40
40085;DHT22;25786;51.504;7.344;2023-03-01T16:05:47;5.60;51.30
40085;DHT22;25786;51.504;7.344;2023-03-01T16:08:13;5.60;50.80
40085;DHT22;25786;51.504;7.344;2023-03-01T16:10:39;5.60;50.60
40085;DHT22;25786;51.504;7.344;2023-03-01T16:13:05;5.50;50.10
40085;DHT22;25786;51.504;7.344;2023-03-01T16:15:31;5.50;50.50
40085;DHT22;25786;51.504;7.344;2023-03-01T16:17:58;5.50;50.70
40085;DHT22;25786;51.504;7.344;2023-03-01T16:20:24;5.50;50.30
40085;DHT22;25786;51.504;7.344;2023-03-01T16:22:50;5.50;50.50
40085;DHT22;25786;51.504;7.344;2023-03-01T16:25:16;5.50;51.20
40085;DHT22;25786;51.504;7.344;2023-03-01T16:27:42;5.50;49.90
40085;DHT22;25786;51.504;7.344;2023-03-01T16:30:08;5.40;49.70
40085;DHT22;25786;51.504;7.344;2023-03-01T16:32:37;5.50;49.30
40085;DHT22;25786;51.504;7.344;2023-03-01T16:35:02;5.40;49.40
40085;DHT22;25786;51.504;7.344;2023-03-01T16:37:28;5.40;49.00
40085;DHT22;25786;51.504;7.344;2023-03-01T16:39:56;5.50;48.90
40085;DHT22;25786;51.504;7.344;2023-03-01T16:42:21;5.30;49.90
40085;DHT22;25786;51.504;7.344;2023-03-01T16:44:47;5.20;50.70
40085;DHT22;25786;51.504;7.344;2023-03-01T16:47:12;5.10;50.30
40085;DHT22;25786;51.504;7.344;2023-03-01T16:49:38;5.10;50.80
40085;DHT22;25786;51.504;7.344;2023-03-01T16:52:03;5.00;51.20
40085;DHT22;25786;51.504;7.344;2023-03-01T16:54:28;5.10;50.00
40085;DHT22;25786;51.504;7.344;2023-03-01T16:56:54;5.10;50.20
40085;DHT22;25786;51.504;7.344;2023-03-01T16:59:19;5.00;50.70
40085;DHT22;25786;51.504;7.344;2023-03-01T17:01:45;5.00;50.50
40085;DHT22;25786;51.504;7.344;2023-03-01T17:04:12;4.90;51.10
40085;DHT22;25786;51.504;7.344;2023-03-01T17:06:38;4.80;51.30
40085;DHT22;25786;51.504;7.344;2023-03-01T17:09:03;4.80;51.00
40085;DHT22;25786;51.504;7.344;2023-03-01T17:11:29;4.70;51.70
40085;DHT22;25786;51.504;7.344;2023-03-01T17:13:54;4.70;51.40
40085;DHT22;25786;51.504;7.344;2023-03-01T17:16:20;4.70;51.80
40085;DHT22;25786;51.504;7.344;2023-03-01T17:18:46;4.80;51.10